Terminal Aerodrome Forecast
Issued by NWS Binghamton, NY

Home | Current Version | Previous Version | Text Only | Print | Product List | Glossary On
Versions: 1 2 3 4 5 6 7 8 9 10 11 12 13 14 15 16 17 18 19 20 21 22 23 24 25 26 27 28 29 30
018
FTUS41 KBGM 230319 AAA
TAFAVP
TAF AMD
KAVP 230319Z 2303/2324 VRB05KT P6SM OVC015
     FM231200 06013G24KT P6SM -RA OVC015
     FM231500 06015G28KT P6SM -RA OVC015 WS020/10045KT
     FM231800 06014G27KT 5SM -RAPL OVC015 WS020/09045KT
     FM232000 06013G30KT 5SM -RAPL OVC025=

USA.gov is the U.S. government's official web portal to all federal, state and local government web resources and services.